createdAt,value
2022-09-24T00:00:05.156Z,0.90
2022-09-24T00:02:07.191Z,0.80
2022-09-24T00:04:12.549Z,0.70
2022-09-24T00:06:14.583Z,0.70
2022-09-24T00:08:17.751Z,0.80
2022-09-24T00:10:19.933Z,0.70
2022-09-24T00:12:22.067Z,1.20
2022-09-24T00:14:24.534Z,0.70
2022-09-24T00:16:29.139Z,0.70
2022-09-24T00:18:31.713Z,1.13
2022-09-24T00:20:36.100Z,1.23
2022-09-24T00:22:38.595Z,0.98
2022-09-24T00:24:51.211Z,1.20
2022-09-24T00:26:53.136Z,1.00
2022-09-24T00:28:55.073Z,1.42
2022-09-24T00:30:59.293Z,1.10
2022-09-24T00:33:01.263Z,1.08
2022-09-24T00:35:03.202Z,1.00
2022-09-24T00:37:05.034Z,0.70
2022-09-24T00:39:07.592Z,1.33
2022-09-24T00:41:09.622Z,0.95
2022-09-24T00:43:44.390Z,1.00
2022-09-24T00:45:46.396Z,1.08
2022-09-24T00:47:49.161Z,0.82
2022-09-24T00:49:52.017Z,1.10
2022-09-24T00:51:54.056Z,0.90
2022-09-24T00:54:01.812Z,1.20
2022-09-24T00:56:07.279Z,1.05
2022-09-24T00:58:10.297Z,1.08
2022-09-24T01:00:13.132Z,0.80
2022-09-24T01:02:15.650Z,1.15
2022-09-24T01:04:22.530Z,1.20
2022-09-24T01:06:26.455Z,0.90
2022-09-24T01:08:28.461Z,1.25
2022-09-24T01:11:14.829Z,1.00
2022-09-24T01:13:43.537Z,1.30
2022-09-24T01:15:57.941Z,1.23
2022-09-24T01:18:17.882Z,1.25
2022-09-24T01:20:32.024Z,1.35
2022-09-24T01:23:16.899Z,1.10
2022-09-24T01:25:58.723Z,0.90
2022-09-24T01:28:19.556Z,1.10
2022-09-24T01:32:52.380Z,1.42
2022-09-24T01:35:24.499Z,1.73
2022-09-24T01:37:31.979Z,0.93
2022-09-24T01:39:37.561Z,2.20
2022-09-24T01:41:40.118Z,0.90
2022-09-24T01:43:43.321Z,0.90
2022-09-24T01:45:46.179Z,1.10
2022-09-24T01:47:48.813Z,0.63
2022-09-24T01:49:53.696Z,0.82
2022-09-24T01:51:58.788Z,0.93
2022-09-24T01:54:16.182Z,1.38
2022-09-24T01:56:42.522Z,1.73
2022-09-24T01:59:05.888Z,1.15
2022-09-24T02:01:12.645Z,1.55
2022-09-24T02:03:20.326Z,1.45
2022-09-24T02:05:28.781Z,1.45
2022-09-24T02:07:41.145Z,1.52
2022-09-24T02:09:44.330Z,1.95
2022-09-24T02:11:46.779Z,1.95
2022-09-24T02:13:57.601Z,2.25
2022-09-24T02:18:10.209Z,2.15
2022-09-24T02:20:20.587Z,1.83
2022-09-24T02:22:25.523Z,3.75
2022-09-24T02:24:37.237Z,3.47
2022-09-24T02:26:39.219Z,3.92
2022-09-24T02:28:41.929Z,3.45
2022-09-24T02:31:28.122Z,3.75
2022-09-24T02:33:52.808Z,3.85
2022-09-24T02:35:55.028Z,4.50
2022-09-24T02:37:56.945Z,5.65
2022-09-24T02:39:58.898Z,5.53
2022-09-24T02:42:02.115Z,4.65
2022-09-24T02:44:03.732Z,5.35
2022-09-24T02:46:05.990Z,4.47
2022-09-24T02:48:08.254Z,5.25
2022-09-24T02:50:10.273Z,4.68
2022-09-24T02:52:12.927Z,4.85
2022-09-24T02:54:41.433Z,5.13
2022-09-24T02:57:05.637Z,4.93
2022-09-24T02:59:33.342Z,4.82
2022-09-24T03:02:03.176Z,4.65
2022-09-24T03:04:31.588Z,5.13
2022-09-24T03:06:34.021Z,5.35
2022-09-24T03:08:35.977Z,4.65
2022-09-24T03:10:37.937Z,4.38
2022-09-24T03:12:41.078Z,4.53
2022-09-24T03:14:43.129Z,4.63
2022-09-24T03:16:45.246Z,4.75
2022-09-24T03:18:48.103Z,4.05
2022-09-24T03:21:06.313Z,4.32
2022-09-24T03:23:08.313Z,3.97
2022-09-24T03:25:11.386Z,3.95
2022-09-24T03:27:13.416Z,3.92
2022-09-24T03:29:15.442Z,3.40
2022-09-24T03:31:17.773Z,3.75
2022-09-24T03:33:19.722Z,2.78
2022-09-24T03:35:21.939Z,2.97
2022-09-24T03:37:23.886Z,2.97
2022-09-24T03:39:25.703Z,2.97
2022-09-24T03:41:28.533Z,3.63
2022-09-24T03:43:31.651Z,2.45
2022-09-24T03:45:33.626Z,2.92
2022-09-24T03:47:35.966Z,2.88
2022-09-24T03:49:37.950Z,2.80
2022-09-24T03:51:39.946Z,2.83
2022-09-24T03:53:42.284Z,2.47
2022-09-24T03:55:53.013Z,2.45
2022-09-24T03:59:58.742Z,2.15
2022-09-24T04:02:01.015Z,2.20
2022-09-24T04:04:04.243Z,2.10
2022-09-24T04:06:07.160Z,2.60
2022-09-24T04:08:09.299Z,2.17
2022-09-24T04:10:11.887Z,2.63
2022-09-24T04:12:14.321Z,2.40
2022-09-24T04:14:16.300Z,2.25
2022-09-24T04:16:26.712Z,2.15
2022-09-24T04:18:28.825Z,1.50
2022-09-24T04:20:31.464Z,2.17
2022-09-24T04:22:33.605Z,1.90
2022-09-24T04:24:35.640Z,2.35
2022-09-24T04:26:37.759Z,2.25
2022-09-24T04:28:39.893Z,2.25
2022-09-24T04:30:56.474Z,1.77
2022-09-24T04:33:01.227Z,1.90
2022-09-24T04:35:07.475Z,2.10
2022-09-24T04:37:10.471Z,2.53
2022-09-24T04:39:12.466Z,1.60
2022-09-24T04:41:17.466Z,1.85
2022-09-24T04:43:19.664Z,1.90
2022-09-24T04:45:22.429Z,1.95
2022-09-24T04:47:26.137Z,1.75
2022-09-24T04:49:29.375Z,2.30
2022-09-24T04:51:34.156Z,1.80
2022-09-24T04:53:37.487Z,1.85
2022-09-24T04:55:39.913Z,2.03
2022-09-24T04:57:41.974Z,1.67
2022-09-24T04:59:44.588Z,2.20
2022-09-24T05:01:47.460Z,2.05
2022-09-24T05:03:50.002Z,1.60
2022-09-24T05:05:52.298Z,1.80
2022-09-24T05:07:56.952Z,1.77
2022-09-24T05:09:59.097Z,2.45
2022-09-24T05:12:02.184Z,2.30
2022-09-24T05:14:04.166Z,1.73
2022-09-24T05:16:06.247Z,2.00
2022-09-24T05:18:12.784Z,1.73
2022-09-24T05:20:17.063Z,2.05
2022-09-24T05:22:19.406Z,2.47
2022-09-24T05:24:21.411Z,1.95
2022-09-24T05:26:42.102Z,2.28
2022-09-24T05:28:44.181Z,1.95
2022-09-24T05:30:51.708Z,2.35
2022-09-24T05:32:53.563Z,2.00
2022-09-24T05:34:55.519Z,1.65
2022-09-24T05:36:57.514Z,2.00
2022-09-24T05:38:59.584Z,2.13
2022-09-24T05:41:06.386Z,2.05
2022-09-24T05:43:08.627Z,2.05
2022-09-24T05:45:10.723Z,1.50
2022-09-24T05:47:14.062Z,1.60
2022-09-24T05:49:16.792Z,1.67
2022-09-24T05:51:19.224Z,1.50
2022-09-24T05:53:22.855Z,1.85
2022-09-24T05:55:28.748Z,1.90
2022-09-24T05:57:34.484Z,1.83
2022-09-24T05:59:36.854Z,1.65
2022-09-24T06:01:41.581Z,1.67
2022-09-24T06:03:43.655Z,1.98
2022-09-24T06:05:49.055Z,2.10
2022-09-24T06:07:51.708Z,1.90
2022-09-24T06:09:53.743Z,2.08
2022-09-24T06:11:56.469Z,1.65
2022-09-24T06:14:01.085Z,2.05
2022-09-24T06:16:05.871Z,2.10
2022-09-24T06:18:18.828Z,1.80
2022-09-24T06:20:21.476Z,1.70
2022-09-24T06:22:28.187Z,2.15
2022-09-24T06:24:30.644Z,1.80
2022-09-24T06:26:33.391Z,1.95
2022-09-24T06:28:35.464Z,2.22
2022-09-24T06:30:41.027Z,2.25
2022-09-24T06:32:43.018Z,2.35
2022-09-24T06:34:45.564Z,1.90
2022-09-24T06:36:47.499Z,1.73
2022-09-24T06:38:53.300Z,2.10
2022-09-24T06:41:00.353Z,1.90
2022-09-24T06:43:02.495Z,1.65
2022-09-24T06:45:05.106Z,2.65
2022-09-24T06:47:07.239Z,1.95
2022-09-24T06:49:09.410Z,1.50
2022-09-24T06:51:11.388Z,2.00
2022-09-24T06:53:13.401Z,2.05
2022-09-24T06:55:16.174Z,1.88
2022-09-24T06:57:18.462Z,1.42
2022-09-24T06:59:20.843Z,2.22
2022-09-24T07:01:23.186Z,1.70
2022-09-24T07:03:26.857Z,1.35
2022-09-24T07:05:29.007Z,1.63
2022-09-24T07:07:33.046Z,1.58
2022-09-24T07:09:36.534Z,1.42
2022-09-24T07:11:39.388Z,1.10
2022-09-24T07:13:41.937Z,2.13
2022-09-24T07:15:44.727Z,1.52
2022-09-24T07:17:46.843Z,1.50
2022-09-24T07:19:48.946Z,1.30
2022-09-24T07:21:58.223Z,1.83
2022-09-24T07:24:00.395Z,1.40
2022-09-24T07:26:02.399Z,1.73
2022-09-24T07:28:06.435Z,1.50
2022-09-24T07:30:09.535Z,1.40
2022-09-24T07:32:11.264Z,1.80
2022-09-24T07:34:14.190Z,1.80
2022-09-24T07:36:15.755Z,1.63
2022-09-24T07:38:17.388Z,1.60
2022-09-24T07:40:20.310Z,1.80
2022-09-24T07:42:23.522Z,2.28
2022-09-24T07:44:25.150Z,2.50
2022-09-24T07:46:27.537Z,2.75
2022-09-24T07:48:29.231Z,1.85
2022-09-24T07:50:33.965Z,2.53
2022-09-24T07:52:35.847Z,1.95
2022-09-24T07:54:38.432Z,2.10
2022-09-24T07:56:40.171Z,1.80
2022-09-24T07:58:41.817Z,1.90
2022-09-24T08:00:53.788Z,2.63
2022-09-24T08:02:56.633Z,1.92
2022-09-24T08:04:58.750Z,2.20
2022-09-24T08:07:01.311Z,11.90
2022-09-24T08:09:04.226Z,4.63
2022-09-24T08:11:08.506Z,3.60
2022-09-24T08:13:10.175Z,6.22
2022-09-24T08:15:11.905Z,12.60
2022-09-24T08:17:13.729Z,11.52
2022-09-24T08:19:17.016Z,4.88
2022-09-24T08:21:18.731Z,2.55
2022-09-24T08:23:23.553Z,2.25
2022-09-24T08:25:25.173Z,2.20
2022-09-24T08:27:28.063Z,2.03
2022-09-24T08:29:29.682Z,2.17
2022-09-24T08:31:31.475Z,1.90
2022-09-24T08:33:33.859Z,1.88
2022-09-24T08:35:36.713Z,1.67
2022-09-24T08:37:39.127Z,1.60
2022-09-24T08:39:40.785Z,1.83
2022-09-24T08:42:00.396Z,1.52
2022-09-24T08:44:15.096Z,1.80
2022-09-24T08:46:44.126Z,1.67
2022-09-24T08:51:21.134Z,1.25
2022-09-24T08:53:45.250Z,1.90
2022-09-24T08:56:05.047Z,1.30
2022-09-24T08:58:32.008Z,2.03
2022-09-24T09:00:58.269Z,1.77
2022-09-24T09:03:12.504Z,1.40
2022-09-24T09:05:34.170Z,1.48
2022-09-24T09:07:49.424Z,1.27
2022-09-24T09:10:04.256Z,1.58
2022-09-24T09:12:28.764Z,1.40
2022-09-24T09:15:00.209Z,1.30
2022-09-24T09:17:37.756Z,1.10
2022-09-24T09:19:40.904Z,1.00
2022-09-24T09:21:46.865Z,1.58
2022-09-24T09:23:51.393Z,1.15
2022-09-24T09:25:57.274Z,1.70
2022-09-24T09:28:03.236Z,1.00
2022-09-24T09:30:11.788Z,1.10
2022-09-24T09:34:50.675Z,0.98
2022-09-24T09:37:19.885Z,1.20
2022-09-24T09:39:50.907Z,1.50
2022-09-24T09:41:59.875Z,1.05
2022-09-24T09:44:14.196Z,1.05
2022-09-24T09:46:25.601Z,1.08
2022-09-24T09:48:39.576Z,1.20
2022-09-24T09:51:04.587Z,1.10
2022-09-24T09:53:06.661Z,0.70
2022-09-24T09:55:19.855Z,0.60
2022-09-24T09:57:26.451Z,0.60
2022-09-24T09:59:30.033Z,0.80
2022-09-24T10:01:34.630Z,0.50
2022-09-24T10:03:46.463Z,0.50
2022-09-24T10:06:01.096Z,0.55
2022-09-24T10:08:02.758Z,0.40
2022-09-24T10:10:18.302Z,0.65
2022-09-24T10:12:22.432Z,0.70
2022-09-24T10:14:24.135Z,0.70
2022-09-24T10:16:33.194Z,0.50
2022-09-24T10:18:42.449Z,0.65
2022-09-24T10:20:52.039Z,0.40
2022-09-24T10:23:19.625Z,0.40
2022-09-24T10:25:27.122Z,0.40
2022-09-24T10:27:37.476Z,0.35
2022-09-24T10:29:58.489Z,0.40
2022-09-24T10:32:04.084Z,0.43
2022-09-24T10:34:29.286Z,0.25
2022-09-24T10:36:35.142Z,0.35
2022-09-24T10:38:38.025Z,0.52
2022-09-24T10:40:50.785Z,0.40
2022-09-24T10:43:01.507Z,0.68
2022-09-24T10:47:26.985Z,0.75
2022-09-24T10:49:43.528Z,0.50
2022-09-24T10:52:09.912Z,0.95
2022-09-24T10:54:57.987Z,0.60
2022-09-24T10:57:10.972Z,0.30
2022-09-24T10:59:34.304Z,0.50
2022-09-24T11:01:47.514Z,0.35
2022-09-24T11:03:53.247Z,0.45
2022-09-24T11:06:13.937Z,0.40
2022-09-24T11:08:29.191Z,1.13
2022-09-24T11:11:13.423Z,0.45
2022-09-24T11:13:21.708Z,0.70
2022-09-24T11:15:26.521Z,0.50
2022-09-24T11:17:33.502Z,0.73
2022-09-24T11:20:07.679Z,0.40
2022-09-24T11:22:20.884Z,0.40
2022-09-24T11:24:43.850Z,0.50
2022-09-24T11:27:19.214Z,0.55
2022-09-24T11:29:23.953Z,0.88
2022-09-24T11:31:28.568Z,0.40
2022-09-24T11:33:52.342Z,1.25
2022-09-24T11:36:12.779Z,0.80
2022-09-24T11:38:23.937Z,0.57
2022-09-24T11:40:53.498Z,0.55
2022-09-24T11:43:07.373Z,0.90
2022-09-24T11:45:59.452Z,0.45
2022-09-24T11:48:22.798Z,0.55
2022-09-24T11:50:33.076Z,0.60
2022-09-24T11:52:56.103Z,0.40
2022-09-24T11:55:00.790Z,0.63
2022-09-24T11:57:25.763Z,0.40
2022-09-24T11:59:50.615Z,0.40
2022-09-24T12:02:15.136Z,0.38
2022-09-24T12:04:44.400Z,0.60
2022-09-24T12:07:13.247Z,0.30
2022-09-24T12:09:21.424Z,0.43
2022-09-24T12:11:48.735Z,0.52
2022-09-24T12:14:02.720Z,0.32
2022-09-24T12:16:07.515Z,0.38
2022-09-24T12:18:17.943Z,0.80
2022-09-24T12:20:59.442Z,0.60
2022-09-24T12:23:13.379Z,0.38
2022-09-24T12:25:17.059Z,0.45
2022-09-24T12:27:33.106Z,0.50
2022-09-24T12:30:19.457Z,0.68
2022-09-24T12:32:56.761Z,0.40
2022-09-24T12:35:05.672Z,0.43
2022-09-24T12:37:14.381Z,0.50
2022-09-24T12:39:20.661Z,0.35
2022-09-24T12:42:00.146Z,0.40
2022-09-24T12:44:10.909Z,0.40
2022-09-24T12:48:23.326Z,0.30
2022-09-24T12:50:27.635Z,0.40
2022-09-24T12:52:55.579Z,0.60
2022-09-24T12:55:01.054Z,0.43
2022-09-24T12:57:12.850Z,0.40
2022-09-24T12:59:28.490Z,0.57
2022-09-24T13:01:32.443Z,0.28
2022-09-24T13:03:44.601Z,0.50
2022-09-24T13:05:48.690Z,0.43
2022-09-24T13:08:01.006Z,0.30
2022-09-24T13:10:17.788Z,0.28
2022-09-24T13:12:33.212Z,0.20
2022-09-24T13:14:35.484Z,0.30
2022-09-24T13:16:43.425Z,0.30
2022-09-24T13:18:58.008Z,0.43
2022-09-24T13:21:09.404Z,0.50
2022-09-24T13:23:14.775Z,0.22
2022-09-24T13:25:23.238Z,0.40
2022-09-24T13:27:30.886Z,0.45
2022-09-24T13:29:38.448Z,0.73
2022-09-24T13:31:48.980Z,0.35
2022-09-24T13:34:18.290Z,0.30
2022-09-24T13:36:42.739Z,0.30
2022-09-24T13:38:50.113Z,0.52
2022-09-24T13:41:04.551Z,0.20
2022-09-24T13:43:25.739Z,0.30
2022-09-24T13:45:28.184Z,0.20
2022-09-24T13:47:42.731Z,0.28
2022-09-24T13:49:49.713Z,0.20
2022-09-24T13:52:06.722Z,0.20
2022-09-24T13:54:14.485Z,0.30
2022-09-24T13:56:19.512Z,0.40
2022-09-24T13:58:30.783Z,0.30
2022-09-24T14:00:52.951Z,0.30
2022-09-24T14:02:57.604Z,0.40
2022-09-24T14:05:01.505Z,0.50
2022-09-24T14:07:03.361Z,0.30
2022-09-24T14:09:26.415Z,0.50
2022-09-24T14:11:28.262Z,0.38
2022-09-24T14:13:29.924Z,0.57
2022-09-24T14:15:31.658Z,0.43
2022-09-24T14:17:33.448Z,0.45
2022-09-24T14:19:36.215Z,0.40
2022-09-24T14:21:43.995Z,0.35
2022-09-24T14:23:51.859Z,0.73
2022-09-24T14:25:54.618Z,0.55
2022-09-24T14:28:00.203Z,0.50
2022-09-24T14:30:05.287Z,0.43
2022-09-24T14:32:08.271Z,0.60
2022-09-24T14:34:27.306Z,0.30
2022-09-24T14:36:29.418Z,0.32
2022-09-24T14:38:36.769Z,0.40
2022-09-24T14:40:55.645Z,0.60
2022-09-24T14:43:02.834Z,0.60
2022-09-24T14:45:08.019Z,0.60
2022-09-24T14:47:25.467Z,0.68
2022-09-24T14:49:31.238Z,0.35
2022-09-24T14:51:33.153Z,0.40
2022-09-24T14:53:36.764Z,0.35
2022-09-24T14:55:45.459Z,0.20
2022-09-24T14:57:51.769Z,1.50
2022-09-24T14:59:55.601Z,0.22
2022-09-24T15:02:29.540Z,0.38
2022-09-24T15:04:31.357Z,0.32
2022-09-24T15:06:36.999Z,0.52
2022-09-24T15:08:38.693Z,0.43
2022-09-24T15:10:56.986Z,0.52
2022-09-24T15:12:58.579Z,0.40
2022-09-24T15:15:27.647Z,0.20
2022-09-24T15:17:32.419Z,0.40
2022-09-24T15:19:34.229Z,0.30
2022-09-24T15:21:35.898Z,0.28
2022-09-24T15:23:37.624Z,0.30
2022-09-24T15:25:43.510Z,0.20
2022-09-24T15:27:45.474Z,0.30
2022-09-24T15:29:47.178Z,0.38
2022-09-24T15:31:48.897Z,0.38
2022-09-24T15:33:50.800Z,0.50
2022-09-24T15:35:52.616Z,0.93
2022-09-24T15:37:54.266Z,0.50
2022-09-24T15:40:04.930Z,0.52
2022-09-24T15:44:19.980Z,0.40
2022-09-24T15:46:21.788Z,0.45
2022-09-24T15:48:23.482Z,0.50
2022-09-24T15:50:26.002Z,0.30
2022-09-24T15:52:31.721Z,0.60
2022-09-24T15:54:33.495Z,0.40
2022-09-24T15:56:35.902Z,0.50
2022-09-24T15:58:38.072Z,0.70
2022-09-24T16:00:44.084Z,0.40
2022-09-24T16:02:49.996Z,0.30
2022-09-24T16:04:52.095Z,0.40
2022-09-24T16:06:53.727Z,0.35
2022-09-24T16:08:55.316Z,0.60
2022-09-24T16:10:57.216Z,0.30
2022-09-24T16:12:58.805Z,0.85
2022-09-24T16:15:00.804Z,0.40
2022-09-24T16:17:02.591Z,0.40
2022-09-24T16:19:04.214Z,0.30
2022-09-24T16:21:07.913Z,0.25
2022-09-24T16:23:14.515Z,0.30
2022-09-24T16:25:16.256Z,0.45
2022-09-24T16:27:17.888Z,0.30
2022-09-24T16:29:19.686Z,0.45
2022-09-24T16:31:21.426Z,0.50
2022-09-24T16:33:23.541Z,0.60
2022-09-24T16:35:25.239Z,0.57
2022-09-24T16:37:26.854Z,0.40
2022-09-24T16:39:28.444Z,0.47
2022-09-24T16:41:34.373Z,0.40
2022-09-24T16:43:36.099Z,0.47
2022-09-24T16:45:37.731Z,0.50
2022-09-24T16:47:39.414Z,0.40
2022-09-24T16:49:56.802Z,0.50
2022-09-24T16:52:25.982Z,0.60
2022-09-24T16:54:33.853Z,0.52
2022-09-24T16:56:46.338Z,0.82
2022-09-24T16:59:01.710Z,0.73
2022-09-24T17:01:15.020Z,0.80
2022-09-24T17:03:31.155Z,1.45
2022-09-24T17:05:46.455Z,1.52
2022-09-24T17:07:51.486Z,1.80
2022-09-24T17:10:24.982Z,2.90
2022-09-24T17:12:36.775Z,2.58
2022-09-24T17:14:38.974Z,1.63
2022-09-24T17:16:41.843Z,1.08
2022-09-24T17:18:43.673Z,4.10
2022-09-24T17:20:49.460Z,1.58
2022-09-24T17:22:51.319Z,1.20
2022-09-24T17:24:52.954Z,0.65
2022-09-24T17:26:55.190Z,0.68
2022-09-24T17:28:56.864Z,0.70
2022-09-24T17:30:58.737Z,0.60
2022-09-24T17:33:00.363Z,0.60
2022-09-24T17:35:02.231Z,0.55
2022-09-24T17:37:05.174Z,0.80
2022-09-24T17:39:07.260Z,0.70
2022-09-24T17:41:12.192Z,0.45
2022-09-24T17:43:13.965Z,0.70
2022-09-24T17:45:15.880Z,0.40
2022-09-24T17:47:17.783Z,0.75
2022-09-24T17:49:20.629Z,0.40
2022-09-24T17:51:33.731Z,0.50
2022-09-24T17:53:37.928Z,0.40
2022-09-24T17:55:48.278Z,0.50
2022-09-24T17:57:50.143Z,0.47
2022-09-24T17:59:52.055Z,0.60
2022-09-24T18:01:54.300Z,0.85
2022-09-24T18:03:58.382Z,0.80
2022-09-24T18:06:05.212Z,0.55
2022-09-24T18:08:07.695Z,0.80
2022-09-24T18:10:09.724Z,0.70
2022-09-24T18:12:17.090Z,0.90
2022-09-24T18:14:23.155Z,0.50
2022-09-24T18:16:28.401Z,0.88
2022-09-24T18:18:30.400Z,0.68
2022-09-24T18:20:32.348Z,0.70
2022-09-24T18:22:33.999Z,0.68
2022-09-24T18:24:35.745Z,0.70
2022-09-24T18:26:40.206Z,1.27
2022-09-24T18:28:48.183Z,0.90
2022-09-24T18:31:03.444Z,0.73
2022-09-24T18:33:05.194Z,0.50
2022-09-24T18:35:10.456Z,0.70
2022-09-24T18:37:12.941Z,0.93
2022-09-24T18:39:22.019Z,0.43
2022-09-24T18:41:28.381Z,1.30
2022-09-24T18:43:31.224Z,0.60
2022-09-24T18:45:34.776Z,0.75
2022-09-24T18:47:38.334Z,0.68
2022-09-24T18:49:43.619Z,0.65
2022-09-24T18:51:46.673Z,0.50
2022-09-24T18:53:56.536Z,0.50
2022-09-24T18:56:03.008Z,0.70
2022-09-24T18:58:06.919Z,1.00
2022-09-24T19:00:29.477Z,0.88
2022-09-24T19:02:31.562Z,0.60
2022-09-24T19:04:33.708Z,0.80
2022-09-24T19:06:37.647Z,0.50
2022-09-24T19:08:40.051Z,0.77
2022-09-24T19:11:00.108Z,0.73
2022-09-24T19:13:08.301Z,0.38
2022-09-24T19:15:10.011Z,0.57
2022-09-24T19:17:11.623Z,0.35
2022-09-24T19:19:13.365Z,0.50
2022-09-24T19:21:15.813Z,0.65
2022-09-24T19:23:17.518Z,0.50
2022-09-24T19:25:19.132Z,0.52
2022-09-24T19:27:20.733Z,0.40
2022-09-24T19:29:22.664Z,0.82
2022-09-24T19:31:26.868Z,0.82
2022-09-24T19:33:28.802Z,1.38
2022-09-24T19:35:30.434Z,0.68
2022-09-24T19:37:32.452Z,0.80
2022-09-24T19:39:34.111Z,0.70
2022-09-24T19:41:35.913Z,0.95
2022-09-24T19:43:37.832Z,0.63
2022-09-24T19:45:39.611Z,0.50
2022-09-24T19:47:41.237Z,0.80
2022-09-24T19:49:42.894Z,0.88
2022-09-24T19:51:44.546Z,0.70
2022-09-24T19:53:51.701Z,0.90
2022-09-24T19:56:18.430Z,1.15
2022-09-24T19:58:20.176Z,1.17
2022-09-24T20:00:23.687Z,0.77
2022-09-24T20:02:25.552Z,0.47
2022-09-24T20:04:27.284Z,1.05
2022-09-24T20:06:31.358Z,0.52
2022-09-24T20:08:36.845Z,0.63
2022-09-24T20:10:52.696Z,1.00
2022-09-24T20:12:54.646Z,1.02
2022-09-24T20:14:56.427Z,0.70
2022-09-24T20:16:58.114Z,0.60
2022-09-24T20:19:01.478Z,0.65
2022-09-24T20:21:05.300Z,0.50
2022-09-24T20:23:08.376Z,0.82
2022-09-24T20:25:11.699Z,1.02
2022-09-24T20:27:31.618Z,0.47
2022-09-24T20:29:34.280Z,0.60
2022-09-24T20:31:37.361Z,0.90
2022-09-24T20:33:41.236Z,0.63
2022-09-24T20:35:42.960Z,0.60
2022-09-24T20:37:44.828Z,0.63
2022-09-24T20:39:46.583Z,0.50
2022-09-24T20:41:52.852Z,0.50
2022-09-24T20:43:55.625Z,0.57
2022-09-24T20:45:57.327Z,0.40
2022-09-24T20:47:59.087Z,0.43
2022-09-24T20:50:00.725Z,0.65
2022-09-24T20:52:03.729Z,0.60
2022-09-24T20:54:05.730Z,0.55
2022-09-24T20:56:09.326Z,0.60
2022-09-24T20:58:11.068Z,0.65
2022-09-24T21:00:15.019Z,0.70
2022-09-24T21:02:16.761Z,0.50
2022-09-24T21:04:20.236Z,0.75
2022-09-24T21:06:23.479Z,0.50
2022-09-24T21:08:25.165Z,0.60
2022-09-24T21:10:31.969Z,0.82
2022-09-24T21:13:05.331Z,0.60
2022-09-24T21:15:30.253Z,0.50
2022-09-24T21:17:32.517Z,0.43
2022-09-24T21:19:35.720Z,0.30
2022-09-24T21:21:39.197Z,0.75
2022-09-24T21:23:41.360Z,0.98
2022-09-24T21:25:54.305Z,0.60
2022-09-24T21:27:56.804Z,0.60
2022-09-24T21:29:58.437Z,0.90
2022-09-24T21:32:07.711Z,0.63
2022-09-24T21:34:11.448Z,0.88
2022-09-24T21:36:15.304Z,0.50
2022-09-24T21:38:19.835Z,0.45
2022-09-24T21:40:21.796Z,0.60
2022-09-24T21:42:24.177Z,0.50
2022-09-24T21:44:26.269Z,0.50
2022-09-24T21:46:31.463Z,1.20
2022-09-24T21:48:34.455Z,0.60
2022-09-24T21:50:49.452Z,0.47
2022-09-24T21:52:52.024Z,0.50
2022-09-24T21:54:53.690Z,0.50
2022-09-24T21:56:55.389Z,0.93
2022-09-24T21:58:58.396Z,0.80
2022-09-24T22:01:04.990Z,0.50
2022-09-24T22:03:08.385Z,0.47
2022-09-24T22:05:10.127Z,0.45
2022-09-24T22:07:11.890Z,0.50
2022-09-24T22:09:13.505Z,0.40
2022-09-24T22:11:15.619Z,0.40
2022-09-24T22:13:17.687Z,0.43
2022-09-24T22:15:21.403Z,0.50
2022-09-24T22:17:23.034Z,0.60
2022-09-24T22:19:24.911Z,0.40
2022-09-24T22:21:27.548Z,0.60
2022-09-24T22:23:29.255Z,0.65
2022-09-24T22:25:31.431Z,0.52
2022-09-24T22:27:33.164Z,0.40
2022-09-24T22:29:34.937Z,0.30
2022-09-24T22:31:36.564Z,0.50
2022-09-24T22:33:57.078Z,1.08
2022-09-24T22:35:58.759Z,0.70
2022-09-24T22:38:00.438Z,0.47
2022-09-24T22:40:04.581Z,0.65
2022-09-24T22:42:07.077Z,0.40
2022-09-24T22:44:09.115Z,0.50
2022-09-24T22:46:12.916Z,0.32
2022-09-24T22:48:14.627Z,0.30
2022-09-24T22:50:16.386Z,0.40
2022-09-24T22:52:18.154Z,0.40
2022-09-24T22:54:19.936Z,0.65
2022-09-24T22:56:24.653Z,0.60
2022-09-24T22:58:28.076Z,0.70
2022-09-24T23:00:29.705Z,0.70
2022-09-24T23:02:31.349Z,0.63
2022-09-24T23:04:33.246Z,0.60
2022-09-24T23:06:35.260Z,0.77
2022-09-24T23:08:37.710Z,0.57
2022-09-24T23:10:39.373Z,0.70
2022-09-24T23:12:41.100Z,0.57
2022-09-24T23:14:46.532Z,0.77
2022-09-24T23:16:48.661Z,0.55
2022-09-24T23:18:53.823Z,0.80
2022-09-24T23:20:55.448Z,0.85
2022-09-24T23:22:58.379Z,1.55
2022-09-24T23:25:02.517Z,0.70
2022-09-24T23:27:04.935Z,1.60
2022-09-24T23:29:08.978Z,0.70
2022-09-24T23:31:15.459Z,0.60
2022-09-24T23:33:17.328Z,0.90
2022-09-24T23:35:19.103Z,0.65
2022-09-24T23:37:21.755Z,1.52
2022-09-24T23:39:24.348Z,0.57
2022-09-24T23:41:29.173Z,0.52
2022-09-24T23:43:31.981Z,0.80
2022-09-24T23:45:35.358Z,0.80
2022-09-24T23:47:40.078Z,0.60
2022-09-24T23:49:43.066Z,0.50
2022-09-24T23:51:47.065Z,0.60
2022-09-24T23:53:52.618Z,0.50
2022-09-24T23:55:56.711Z,0.77
2022-09-24T23:58:00.037Z,0.70
